Time;durP1;ratioP1;P1;durP2;ratioP2;P2;SDS_P1;SDS_P2;PMS_P1;PMS_P2;Temp;Humidity;BMP_temperature;BMP_pressure;BME280_temperature;BME280_humidity;BME280_pressure;Samples;Min_cycle;Max_cycle;Signal;HPM_P1;HPM_P2
2021/12/01 07:05:28;;;;;;;0.45;0.10;;;7.80;99.90;;;;;;4981024;23;20237;-66
2021/12/01 07:07:54;;;;;;;0.55;0.20;;;7.80;99.90;;;;;;4961074;29;20051;-75
2021/12/01 07:10:20;;;;;;;1.35;0.30;;;7.80;99.90;;;;;;4948822;29;20081;-75
2021/12/01 07:12:46;;;;;;;2.88;0.40;;;7.80;99.90;;;;;;4948171;29;20230;-75
2021/12/01 07:15:12;;;;;;;3.83;0.10;;;7.80;99.90;;;;;;4963836;29;20253;-75
2021/12/01 07:17:39;;;;;;;1.13;0.30;;;7.80;99.90;;;;;;4947477;29;20333;-75
2021/12/01 07:20:06;;;;;;;1.52;0.43;;;7.80;99.90;;;;;;4964560;29;20023;-75
2021/12/01 07:22:32;;;;;;;0.70;0.28;;;7.90;99.90;;;;;;4946850;29;20090;-77
2021/12/01 07:24:57;;;;;;;0.55;0.10;;;7.80;99.90;;;;;;4946838;29;20030;-74
2021/12/01 07:27:23;;;;;;;0.50;0.10;;;7.90;99.90;;;;;;4947210;29;20023;-78
2021/12/01 07:29:49;;;;;;;0.63;0.10;;;7.90;99.90;;;;;;4964773;29;20309;-74
2021/12/01 07:32:15;;;;;;;0.85;0.10;;;7.90;99.90;;;;;;4948153;29;20025;-76
2021/12/01 07:34:42;;;;;;;0.30;0.10;;;7.90;99.90;;;;;;4965591;29;20027;-76
2021/12/01 07:37:16;;;;;;;1.40;0.10;;;7.90;99.90;;;;;;4947292;29;20035;-74
2021/12/01 07:39:42;;;;;;;0.70;0.20;;;7.90;99.90;;;;;;4948088;29;20098;-75
2021/12/01 07:42:10;;;;;;;0.88;0.20;;;7.90;99.90;;;;;;4947432;29;20325;-75
2021/12/01 07:44:35;;;;;;;1.73;0.30;;;7.90;99.90;;;;;;4964962;29;20090;-75
2021/12/01 07:47:02;;;;;;;0.77;0.20;;;7.90;99.90;;;;;;4947401;29;20024;-78
2021/12/01 07:49:27;;;;;;;6.15;0.40;;;8.00;99.90;;;;;;4965238;29;20022;-78
2021/12/01 07:51:53;;;;;;;1.23;0.20;;;8.00;99.90;;;;;;4947618;29;20179;-80
2021/12/01 07:54:19;;;;;;;2.03;0.20;;;7.90;99.90;;;;;;4964915;29;20255;-78
2021/12/01 07:56:45;;;;;;;1.10;0.20;;;8.00;99.90;;;;;;4947530;29;20031;-76
2021/12/01 07:59:15;;;;;;;1.60;0.20;;;8.00;99.90;;;;;;4947192;29;20023;-78
2021/12/01 08:01:43;;;;;;;0.55;0.10;;;8.00;99.90;;;;;;4947681;29;20103;-77
2021/12/01 08:04:11;;;;;;;0.35;0.10;;;8.00;99.90;;;;;;4947390;29;20058;-77
2021/12/01 08:06:38;;;;;;;1.00;0.20;;;8.00;99.90;;;;;;4964404;29;20119;-77
2021/12/01 08:09:05;;;;;;;0.75;0.20;;;8.00;99.90;;;;;;4946396;29;20058;-76
2021/12/01 08:11:32;;;;;;;1.88;0.10;;;8.00;99.90;;;;;;4947356;29;20038;-77
2021/12/01 08:13:58;;;;;;;1.25;0.10;;;8.00;99.90;;;;;;4946311;29;20023;-80
2021/12/01 08:16:24;;;;;;;2.55;0.20;;;8.00;99.90;;;;;;4964045;29;20035;-78
2021/12/01 08:18:55;;;;;;;1.42;0.10;;;8.10;99.90;;;;;;4947163;29;20019;-81
2021/12/01 08:21:22;;;;;;;0.98;0.15;;;8.10;99.90;;;;;;4947005;29;20038;-76
2021/12/01 08:23:48;;;;;;;1.15;0.10;;;8.10;99.90;;;;;;4948055;29;20026;-77
2021/12/01 08:26:14;;;;;;;2.28;0.17;;;8.10;99.90;;;;;;4964156;29;20034;-77
2021/12/01 08:28:45;;;;;;;0.30;0.10;;;8.20;99.90;;;;;;4949119;29;20015;-77
2021/12/01 08:31:16;;;;;;;0.40;0.10;;;8.20;99.90;;;;;;4968254;29;20170;-78
2021/12/01 08:33:43;;;;;;;2.15;0.75;;;8.20;99.90;;;;;;4951657;29;20067;-77
2021/12/01 08:36:10;;;;;;;2.63;0.17;;;8.20;99.90;;;;;;4968193;29;20023;-78
2021/12/01 08:38:36;;;;;;;0.68;0.40;;;8.20;99.90;;;;;;4951232;29;20026;-80
2021/12/01 08:41:03;;;;;;;0.43;0.30;;;8.10;99.90;;;;;;4967589;29;20019;-78
2021/12/01 08:43:29;;;;;;;1.85;0.10;;;8.20;99.90;;;;;;4950719;29;20015;-76
2021/12/01 08:45:55;;;;;;;1.13;0.20;;;8.20;99.90;;;;;;4950631;29;20027;-78
2021/12/01 08:48:21;;;;;;;0.22;0.10;;;8.20;99.90;;;;;;4951323;29;20023;-76
2021/12/01 08:50:47;;;;;;;0.70;0.20;;;8.20;99.90;;;;;;4967936;29;20038;-74
2021/12/01 08:53:12;;;;;;;1.88;0.30;;;8.20;99.90;;;;;;4949906;29;20019;-77
2021/12/01 08:55:40;;;;;;;1.02;0.30;;;8.20;99.90;;;;;;4968037;29;20082;-77
2021/12/01 08:58:11;;;;;;;0.32;0.10;;;8.20;99.90;;;;;;4950488;29;20035;-77
2021/12/01 09:00:42;;;;;;;4.00;0.20;;;8.20;99.90;;;;;;4967719;29;20027;-79
2021/12/01 09:03:08;;;;;;;1.20;0.20;;;8.20;99.90;;;;;;4950331;29;20046;-78
2021/12/01 09:05:33;;;;;;;1.38;0.20;;;8.20;99.90;;;;;;4950623;29;20388;-77
2021/12/01 09:07:59;;;;;;;1.35;0.10;;;8.20;99.90;;;;;;4949961;29;20082;-77
2021/12/01 09:10:25;;;;;;;6.50;0.32;;;8.30;99.90;;;;;;4950193;29;20035;-77
2021/12/01 09:12:51;;;;;;;4.05;0.20;;;8.30;99.90;;;;;;4949585;29;20047;-77
2021/12/01 09:15:16;;;;;;;2.53;0.10;;;8.30;99.90;;;;;;4949820;29;20038;-76
2021/12/01 09:17:42;;;;;;;2.15;0.20;;;8.30;99.90;;;;;;4950587;29;20035;-74
2021/12/01 09:20:08;;;;;;;0.82;0.10;;;8.30;99.90;;;;;;4950213;29;20324;-78
2021/12/01 09:22:34;;;;;;;0.95;0.08;;;8.30;99.90;;;;;;4950240;29;20023;-76
2021/12/01 09:25:00;;;;;;;1.90;0.10;;;8.30;99.90;;;;;;4965991;29;20030;-80
2021/12/01 09:27:25;;;;;;;2.15;0.10;;;8.30;99.90;;;;;;4949701;29;20034;-79
2021/12/01 09:29:53;;;;;;;0.85;0.13;;;8.40;99.90;;;;;;4949513;29;20022;-77
2021/12/01 09:32:19;;;;;;;1.20;0.40;;;8.40;99.90;;;;;;4949420;29;20034;-74
2021/12/01 09:34:45;;;;;;;1.83;0.20;;;8.40;99.90;;;;;;4949657;29;20019;-77
2021/12/01 09:37:11;;;;;;;0.88;0.38;;;8.40;99.90;;;;;;4948957;29;20035;-74
2021/12/01 09:39:37;;;;;;;0.43;0.08;;;8.40;99.90;;;;;;4949564;29;20289;-75
2021/12/01 09:42:04;;;;;;;2.85;0.40;;;8.40;99.90;;;;;;4948735;29;20023;-77
2021/12/01 09:44:30;;;;;;;2.50;0.30;;;8.40;99.90;;;;;;4965786;29;20414;-74
2021/12/01 09:46:57;;;;;;;1.27;0.10;;;8.40;99.90;;;;;;4943571;29;20035;-72
2021/12/01 09:49:23;;;;;;;1.75;0.20;;;8.30;99.90;;;;;;4961950;29;20030;-75
2021/12/01 09:51:49;;;;;;;0.70;0.20;;;8.30;99.90;;;;;;4948151;29;20019;-79
2021/12/01 09:54:14;;;;;;;2.75;0.20;;;8.30;99.90;;;;;;4948036;29;20414;-77
2021/12/01 09:56:40;;;;;;;4.28;0.40;;;8.40;99.90;;;;;;4965556;29;20035;-76
2021/12/01 09:59:06;;;;;;;2.22;0.30;;;8.40;99.90;;;;;;4964398;29;20043;-74
2021/12/01 10:01:32;;;;;;;0.40;0.10;;;8.30;99.90;;;;;;4946159;29;20263;-83
2021/12/01 10:03:59;;;;;;;1.08;0.10;;;8.40;99.90;;;;;;4947044;29;20090;-79
2021/12/01 10:06:27;;;;;;;2.63;0.20;;;8.40;99.90;;;;;;4946969;29;20054;-78
2021/12/01 10:08:56;;;;;;;1.80;0.10;;;8.30;99.90;;;;;;4964868;29;20022;-81
2021/12/01 10:11:26;;;;;;;1.85;0.20;;;8.30;99.90;;;;;;4948545;29;20034;-72
2021/12/01 10:13:58;;;;;;;1.23;0.20;;;8.30;99.90;;;;;;4947645;29;20023;-74
2021/12/01 10:16:29;;;;;;;1.35;0.20;;;8.40;99.90;;;;;;4946915;29;20049;-74
2021/12/01 10:18:58;;;;;;;2.55;0.30;;;8.30;99.90;;;;;;4964381;29;20082;-80
2021/12/01 10:21:47;;;;;;;2.67;0.15;;;8.30;99.90;;;;;;4965437;29;20035;-73
2021/12/01 10:24:20;;;;;;;1.20;0.20;;;8.30;99.90;;;;;;4943513;29;20019;-74
2021/12/01 10:26:55;;;;;;;0.70;0.40;;;8.40;99.90;;;;;;4947448;29;20054;-80
2021/12/01 10:29:34;;;;;;;1.40;0.30;;;8.30;99.90;;;;;;4945636;29;20086;-77
2021/12/01 10:32:07;;;;;;;1.05;0.30;;;8.40;99.90;;;;;;4945199;29;20023;-76
2021/12/01 10:34:53;;;;;;;2.95;0.45;;;8.30;99.90;;;;;;4943960;29;20427;-81
2021/12/01 10:37:39;;;;;;;3.03;0.73;;;8.40;99.90;;;;;;4942677;29;20031;-78
2021/12/01 10:40:23;;;;;;;2.72;0.40;;;8.30;99.90;;;;;;4944354;29;20046;-73
2021/12/01 10:42:52;;;;;;;2.20;0.20;;;8.40;99.90;;;;;;4962310;29;20019;-73
2021/12/01 10:45:21;;;;;;;2.10;0.20;;;8.40;99.90;;;;;;4943256;29;20019;-76
2021/12/01 10:47:47;;;;;;;6.00;0.38;;;8.50;99.90;;;;;;4959016;29;20102;-81
2021/12/01 10:50:16;;;;;;;1.95;0.25;;;8.50;99.90;;;;;;4943662;28;20019;-79
2021/12/01 10:52:45;;;;;;;3.00;0.45;;;8.50;99.90;;;;;;4944135;29;20019;-77
2021/12/01 10:55:13;;;;;;;;;;;8.50;99.90;;;;;;4944845;29;20311;-73
2021/12/01 10:57:44;;;;;;;4.45;0.52;;;8.50;99.90;;;;;;4961755;29;19910;-73
2021/12/01 11:00:18;;;;;;;7.20;0.30;;;8.50;99.90;;;;;;4943626;29;20090;-72
2021/12/01 11:02:45;;;;;;;2.90;0.40;;;8.50;99.90;;;;;;4961009;29;20026;-73
2021/12/01 11:05:23;;;;;;;1.80;0.30;;;8.50;99.90;;;;;;4940256;29;20094;-74
2021/12/01 11:07:49;;;;;;;2.03;0.20;;;8.50;99.90;;;;;;4940955;29;20034;-77
2021/12/01 11:10:21;;;;;;;1.13;0.30;;;8.60;99.90;;;;;;4939989;29;20490;-72
2021/12/01 11:12:58;;;;;;;1.58;0.50;;;8.60;99.90;;;;;;4940686;29;20043;-76
2021/12/01 11:15:36;;;;;;;5.82;0.60;;;8.60;99.90;;;;;;4940898;29;20026;-77
2021/12/01 11:18:04;;;;;;;2.10;0.17;;;8.60;99.90;;;;;;4940938;29;20028;-77
2021/12/01 11:20:41;;;;;;;3.88;0.85;;;8.60;99.90;;;;;;4942898;29;20015;-77
2021/12/01 11:23:31;;;;;;;2.83;0.45;;;8.60;99.90;;;;;;4940506;29;20020;-73
2021/12/01 11:26:05;;;;;;;1.58;0.63;;;8.60;99.90;;;;;;4940405;29;20020;-78
2021/12/01 11:28:34;;;;;;;0.88;0.60;;;8.70;99.90;;;;;;4941691;29;20015;-73
2021/12/01 11:31:01;;;;;;;;;;;8.70;99.90;;;;;;4940239;29;20035;-73
2021/12/01 11:33:28;;;;;;;5.47;0.65;;;8.70;99.90;;;;;;4940689;29;19933;-83
2021/12/01 11:35:57;;;;;;;2.10;0.70;;;8.70;99.90;;;;;;4942478;29;20070;-74
2021/12/01 11:38:24;;;;;;;2.33;0.88;;;8.70;99.90;;;;;;4939895;29;20267;-73
2021/12/01 11:40:51;;;;;;;1.52;0.57;;;8.80;99.90;;;;;;4942228;29;20071;-76
2021/12/01 11:43:20;;;;;;;1.58;0.45;;;8.90;99.90;;;;;;4940229;29;20091;-71
2021/12/01 11:45:46;;;;;;;1.90;0.40;;;9.00;99.90;;;;;;4942198;29;20020;-70
2021/12/01 11:48:22;;;;;;;1.50;0.35;;;9.20;99.90;;;;;;4940403;29;20032;-77
2021/12/01 11:51:23;;;;;;;1.50;0.35;;;9.30;99.90;;;;;;4941067;29;20019;-73
2021/12/01 11:53:56;;;;;;;1.42;0.20;;;9.40;99.90;;;;;;4928324;29;20027;-72
2021/12/01 11:56:34;;;;;;;5.13;2.38;;;9.40;99.90;;;;;;4940417;29;20019;-74
2021/12/01 11:59:25;;;;;;;0.77;0.22;;;9.50;99.90;;;;;;4940159;29;20023;-72
2021/12/01 12:01:53;;;;;;;1.25;0.40;;;9.30;99.90;;;;;;4937327;29;20027;-75
2021/12/01 12:04:24;;;;;;;3.17;0.57;;;9.30;99.90;;;;;;4942060;29;20210;-79
2021/12/01 12:07:03;;;;;;;3.78;1.10;;;9.20;99.90;;;;;;4959553;29;20043;-71
2021/12/01 12:09:29;;;;;;;;;;;9.10;99.90;;;;;;4944630;29;20098;-70
2021/12/01 12:12:20;;;;;;;4.50;1.10;;;9.20;99.90;;;;;;4943380;29;19954;-77
2021/12/01 12:14:45;;;;;;;10.52;1.15;;;9.20;99.90;;;;;;4944687;29;20061;-71
2021/12/01 12:17:37;;;;;;;20.70;2.25;;;9.10;99.90;;;;;;4961590;29;20090;-71
2021/12/01 12:20:22;;;;;;;11.95;2.13;;;9.00;99.90;;;;;;4958324;29;20083;-74
2021/12/01 12:22:48;;;;;;;5.03;1.67;;;9.00;99.90;;;;;;4944836;29;20023;-71
2021/12/01 12:26:04;;;;;;;3.03;1.20;;;9.00;99.90;;;;;;4944149;29;20285;-71
2021/12/01 12:28:35;;;;;;;5.57;1.60;;;8.90;99.90;;;;;;4961736;29;20047;-71
2021/12/01 12:31:22;;;;;;;2.80;1.30;;;8.90;99.90;;;;;;4961067;29;20015;-79
2021/12/01 12:33:54;;;;;;;6.28;0.70;;;8.90;99.90;;;;;;4931554;29;20250;-72
2021/12/01 12:36:41;;;;;;;3.05;0.70;;;8.90;99.90;;;;;;4963945;29;20035;-75
2021/12/01 12:39:16;;;;;;;3.35;0.68;;;8.90;99.90;;;;;;4964231;29;20042;-72
2021/12/01 12:42:04;;;;;;;6.82;1.70;;;8.90;99.90;;;;;;4947546;29;20020;-71
2021/12/01 12:44:34;;;;;;;2.47;1.08;;;8.90;99.90;;;;;;4947324;29;20115;-71
2021/12/01 12:47:16;;;;;;;2.60;0.70;;;8.80;99.90;;;;;;4946884;29;20034;-70
2021/12/01 12:49:43;;;;;;;0.80;0.40;;;8.80;99.90;;;;;;4947389;29;20023;-72
2021/12/01 12:52:24;;;;;;;2.65;0.98;;;8.80;99.90;;;;;;4946511;29;20027;-72
2021/12/01 12:54:57;;;;;;;5.32;0.98;;;8.80;99.90;;;;;;4964568;29;20023;-72
2021/12/01 12:57:48;;;;;;;3.40;1.10;;;8.70;99.90;;;;;;4947117;29;20122;-70
2021/12/01 13:00:34;;;;;;;3.08;1.33;;;8.70;99.90;;;;;;4963158;29;20030;-72
2021/12/01 13:03:22;;;;;;;8.32;2.13;;;8.80;99.90;;;;;;4944446;29;20023;-72
2021/12/01 13:05:51;;;;;;;2.03;0.73;;;8.80;99.90;;;;;;4946434;29;20102;-70
2021/12/01 13:08:36;;;;;;;2.17;0.77;;;8.80;99.90;;;;;;4946387;29;20066;-70
2021/12/01 13:11:09;;;;;;;2.03;0.77;;;8.80;99.90;;;;;;4944548;29;20046;-79
2021/12/01 13:13:43;;;;;;;3.60;0.60;;;8.80;99.90;;;;;;4945003;29;20042;-72
2021/12/01 13:16:15;;;;;;;4.38;1.70;;;8.80;99.90;;;;;;4947449;29;20019;-71
2021/12/01 13:18:44;;;;;;;7.63;1.15;;;8.90;99.90;;;;;;4966292;29;20027;-75
2021/12/01 13:21:13;;;;;;;4.38;1.50;;;8.90;99.90;;;;;;4949207;29;20236;-71
2021/12/01 13:23:44;;;;;;;2.40;1.27;;;8.90;99.90;;;;;;4966970;29;20067;-71
2021/12/01 13:26:14;;;;;;;4.75;1.95;;;8.90;99.90;;;;;;4949617;29;20268;-71
2021/12/01 13:28:52;;;;;;;3.80;1.92;;;8.90;99.90;;;;;;4949257;29;20314;-72
2021/12/01 13:31:48;;;;;;;4.78;1.80;;;8.80;99.90;;;;;;4964833;29;20250;-72
2021/12/01 13:34:23;;;;;;;4.43;2.05;;;8.80;99.90;;;;;;4959775;29;20085;-71
2021/12/01 13:36:56;;;;;;;4.32;2.00;;;8.80;99.90;;;;;;4963122;29;20223;-82
2021/12/01 13:39:30;;;;;;;4.20;2.00;;;8.80;99.90;;;;;;4963058;29;20075;-73
2021/12/01 13:42:02;;;;;;;4.45;2.15;;;8.90;99.90;;;;;;4945560;29;20026;-75
2021/12/01 13:44:37;;;;;;;3.85;1.58;;;8.90;99.90;;;;;;4945997;29;20316;-70
2021/12/01 13:47:14;;;;;;;2.83;1.60;;;8.80;99.90;;;;;;4944950;29;20023;-70
2021/12/01 13:49:42;;;;;;;4.63;1.30;;;8.90;99.90;;;;;;4962638;29;20094;-73
2021/12/01 13:52:10;;;;;;;5.72;2.55;;;8.90;99.90;;;;;;4962345;29;20031;-74
2021/12/01 13:54:37;;;;;;;3.50;1.52;;;8.90;99.90;;;;;;4945240;29;20290;-70
2021/12/01 13:57:10;;;;;;;4.90;2.83;;;8.90;99.90;;;;;;4944647;29;20042;-70
2021/12/01 13:59:43;;;;;;;5.72;2.15;;;8.90;99.90;;;;;;4945407;29;20030;-70
2021/12/01 14:02:09;;;;;;;7.07;1.92;;;8.90;99.90;;;;;;4962465;29;20496;-74
2021/12/01 14:04:35;;;;;;;17.77;9.07;;;9.00;99.90;;;;;;4945071;29;20098;-72
2021/12/01 14:07:02;;;;;;;6.28;2.05;;;9.00;99.90;;;;;;4961708;29;20043;-71
2021/12/01 14:09:49;;;;;;;5.15;2.65;;;9.00;99.90;;;;;;4962504;29;20102;-70
2021/12/01 14:12:23;;;;;;;7.68;2.45;;;9.00;99.90;;;;;;4931133;29;20434;-70
2021/12/01 14:14:49;;;;;;;4.38;2.10;;;9.10;99.90;;;;;;4944880;29;20027;-79
2021/12/01 14:17:17;;;;;;;5.13;2.17;;;9.10;99.90;;;;;;4944801;29;20314;-71
2021/12/01 14:19:42;;;;;;;5.97;2.13;;;9.10;99.90;;;;;;4962238;29;20027;-69
2021/12/01 14:22:14;;;;;;;7.88;2.45;;;9.10;99.90;;;;;;4944690;29;20457;-70
2021/12/01 14:24:54;;;;;;;3.95;2.25;;;9.10;99.90;;;;;;4944709;29;20094;-76
2021/12/01 14:27:25;;;;;;;12.10;5.30;;;9.10;99.90;;;;;;4943552;29;20058;-72
2021/12/01 14:29:55;;;;;;;4.47;1.90;;;9.20;99.90;;;;;;4944973;29;20067;-72
2021/12/01 14:32:24;;;;;;;12.05;2.60;;;9.20;99.90;;;;;;4944169;29;20023;-69
2021/12/01 14:34:49;;;;;;;3.22;1.30;;;9.10;99.90;;;;;;4945185;29;20385;-70
2021/12/01 14:37:16;;;;;;;4.43;1.58;;;9.20;99.90;;;;;;4961658;29;20031;-68
2021/12/01 14:39:42;;;;;;;3.58;0.93;;;9.10;99.90;;;;;;4944551;29;20197;-68
2021/12/01 14:42:08;;;;;;;6.72;1.55;;;9.10;99.90;;;;;;4961569;29;20094;-68
2021/12/01 14:44:40;;;;;;;4.20;1.08;;;9.10;99.90;;;;;;4944425;29;20038;-70
2021/12/01 14:47:07;;;;;;;3.70;1.10;;;9.10;99.90;;;;;;4943771;29;20327;-69
2021/12/01 14:49:42;;;;;;;2.92;1.50;;;9.20;99.90;;;;;;4944426;29;20168;-73
2021/12/01 14:52:09;;;;;;;3.03;1.38;;;9.20;99.90;;;;;;4944402;29;20019;-73
2021/12/01 14:54:37;;;;;;;7.00;1.33;;;9.10;99.90;;;;;;4943378;29;20070;-71
2021/12/01 14:57:07;;;;;;;2.53;1.27;;;9.20;99.90;;;;;;4961296;29;20035;-73
2021/12/01 14:59:34;;;;;;;4.22;1.65;;;9.10;99.90;;;;;;4961312;29;20023;-73
2021/12/01 15:02:27;;;;;;;5.40;1.70;;;9.20;99.90;;;;;;4943755;29;20025;-76
2021/12/01 15:05:13;;;;;;;9.43;2.05;;;9.20;99.90;;;;;;4944055;29;20027;-77
2021/12/01 15:07:48;;;;;;;3.65;1.83;;;9.20;99.90;;;;;;4944279;29;20326;-69
2021/12/01 15:10:52;;;;;;;8.20;1.98;;;9.10;99.90;;;;;;4943618;29;20062;-74
2021/12/01 15:13:19;;;;;;;4.35;1.50;;;9.20;99.90;;;;;;4939613;29;20034;-71
2021/12/01 15:15:58;;;;;;;4.32;1.52;;;9.20;99.90;;;;;;4961033;29;20030;-73
2021/12/01 15:18:27;;;;;;;8.35;1.27;;;9.20;99.90;;;;;;4960984;29;20027;-73
2021/12/01 15:21:19;;;;;;;2.95;1.45;;;9.20;99.90;;;;;;4943496;29;20058;-69
2021/12/01 15:23:55;;;;;;;5.63;1.40;;;9.20;99.90;;;;;;4961061;29;20270;-71
2021/12/01 15:26:24;;;;;;;4.20;1.70;;;9.20;99.90;;;;;;4943406;29;20020;-69
2021/12/01 15:28:53;;;;;;;6.25;1.67;;;9.20;99.90;;;;;;4943398;29;20023;-69
2021/12/01 15:31:22;;;;;;;4.53;1.80;;;9.30;99.90;;;;;;4960127;29;20268;-72
2021/12/01 15:33:48;;;;;;;8.90;2.10;;;9.40;99.90;;;;;;4961379;29;20211;-71
2021/12/01 15:36:18;;;;;;;3.90;1.70;;;9.30;99.90;;;;;;4943434;29;20023;-69
2021/12/01 15:38:44;;;;;;;2.97;1.42;;;9.20;99.90;;;;;;4943311;29;20323;-68
2021/12/01 15:41:10;;;;;;;7.13;2.50;;;9.10;99.90;;;;;;4960286;29;20249;-69
2021/12/01 15:43:36;;;;;;;7.40;3.33;;;9.10;99.90;;;;;;4943680;29;20099;-68
2021/12/01 15:46:03;;;;;;;12.85;7.00;;;9.10;99.90;;;;;;4959789;29;20027;-72
2021/12/01 15:48:28;;;;;;;7.75;3.35;;;9.00;99.90;;;;;;4960415;29;20205;-68
2021/12/01 15:50:54;;;;;;;10.13;3.70;;;9.10;99.90;;;;;;4943254;29;20030;-70
2021/12/01 15:53:21;;;;;;;4.25;2.47;;;9.00;99.90;;;;;;4959820;29;20234;-68
2021/12/01 15:55:52;;;;;;;5.38;2.35;;;9.00;99.90;;;;;;4943642;29;20132;-69
2021/12/01 15:58:23;;;;;;;9.30;3.70;;;9.00;99.90;;;;;;4942632;29;20043;-70
2021/12/01 16:00:51;;;;;;;8.27;3.13;;;9.00;99.90;;;;;;4943862;29;20098;-69
2021/12/01 16:03:17;;;;;;;7.47;2.53;;;8.90;99.90;;;;;;4943188;29;20025;-69
2021/12/01 16:05:44;;;;;;;5.40;2.25;;;8.80;99.90;;;;;;4943707;29;20043;-72
2021/12/01 16:08:11;;;;;;;6.85;2.15;;;8.80;99.90;;;;;;4943266;29;20310;-74
2021/12/01 16:10:38;;;;;;;4.93;1.95;;;8.70;99.90;;;;;;4961075;29;20030;-71
2021/12/01 16:13:05;;;;;;;7.22;2.70;;;8.70;99.90;;;;;;4942998;29;20024;-70
2021/12/01 16:15:32;;;;;;;5.40;2.63;;;8.70;99.90;;;;;;4943093;29;20016;-71
2021/12/01 16:18:00;;;;;;;5.78;2.30;;;8.70;99.90;;;;;;4943741;29;20034;-70
2021/12/01 16:20:26;;;;;;;4.93;2.33;;;8.70;99.90;;;;;;4961037;29;20019;-73
2021/12/01 16:22:52;;;;;;;5.97;2.70;;;8.60;99.90;;;;;;4960537;29;20023;-70
2021/12/01 16:25:20;;;;;;;7.80;3.63;;;8.60;99.90;;;;;;4960153;29;20166;-71
2021/12/01 16:27:46;;;;;;;5.15;2.63;;;8.60;99.90;;;;;;4943253;29;20027;-68
2021/12/01 16:30:19;;;;;;;4.95;2.20;;;8.70;99.90;;;;;;4942735;29;20026;-74
2021/12/01 16:32:50;;;;;;;7.50;2.47;;;8.60;99.90;;;;;;4943389;29;20121;-70
2021/12/01 16:35:31;;;;;;;6.50;2.42;;;8.60;99.90;;;;;;4959614;29;20022;-74
2021/12/01 16:38:00;;;;;;;5.00;1.92;;;8.50;99.90;;;;;;4941314;29;20182;-70
2021/12/01 16:40:31;;;;;;;4.18;1.80;;;8.50;99.90;;;;;;4958643;29;20038;-74
2021/12/01 16:42:59;;;;;;;7.55;2.72;;;8.50;99.90;;;;;;4959915;29;20341;-70
2021/12/01 16:45:26;;;;;;;5.72;2.92;;;8.40;99.90;;;;;;4959894;29;20046;-68
2021/12/01 16:47:52;;;;;;;5.45;2.80;;;8.40;99.90;;;;;;4942705;29;20034;-68
2021/12/01 16:50:18;;;;;;;6.07;2.45;;;8.50;99.90;;;;;;4962249;28;20023;-67
2021/12/01 16:52:46;;;;;;;3.65;1.92;;;8.40;99.90;;;;;;4964014;29;20015;-67
2021/12/01 16:55:13;;;;;;;3.72;1.98;;;8.40;99.90;;;;;;4960737;29;20019;-74
2021/12/01 16:57:39;;;;;;;3.50;2.00;;;8.40;99.90;;;;;;4963179;29;20034;-67
2021/12/01 17:00:15;;;;;;;5.13;2.13;;;8.40;99.90;;;;;;4961847;29;20024;-67
2021/12/01 17:02:43;;;;;;;5.50;2.05;;;8.40;99.90;;;;;;4946610;29;20098;-66
2021/12/01 17:05:11;;;;;;;4.63;2.40;;;8.40;99.90;;;;;;4945805;29;20114;-69
2021/12/01 17:10:24;;;;;;;4.82;2.20;;;8.50;99.90;;;;;;4922320;29;20035;-68
2021/12/01 17:12:50;;;;;;;6.07;2.90;;;8.50;99.90;;;;;;4963275;29;20023;-69
2021/12/01 17:15:18;;;;;;;7.45;3.03;;;8.50;99.90;;;;;;4946176;29;20030;-67
2021/12/01 17:17:45;;;;;;;7.85;2.78;;;8.40;99.90;;;;;;4946181;29;20035;-68
2021/12/01 17:20:15;;;;;;;3.47;2.03;;;8.40;99.90;;;;;;4945723;29;20034;-67
2021/12/01 17:22:42;;;;;;;4.95;2.90;;;8.40;99.90;;;;;;4963858;29;20019;-67
2021/12/01 17:25:14;;;;;;;5.35;3.03;;;8.40;99.90;;;;;;4963252;29;20019;-68
2021/12/01 17:27:41;;;;;;;4.57;3.30;;;8.30;99.90;;;;;;4963949;29;20034;-71
2021/12/01 17:30:14;;;;;;;6.10;3.28;;;8.30;99.90;;;;;;4944906;29;20019;-68
2021/12/01 17:32:40;;;;;;;7.30;4.43;;;8.30;99.90;;;;;;4962520;29;20041;-69
2021/12/01 17:35:07;;;;;;;6.65;3.85;;;8.30;99.90;;;;;;4946141;29;20029;-70
2021/12/01 17:37:33;;;;;;;5.80;3.20;;;8.30;99.90;;;;;;4945994;29;20023;-70
2021/12/01 17:40:00;;;;;;;21.60;9.48;;;8.30;99.90;;;;;;4962463;29;20023;-76
2021/12/01 17:42:28;;;;;;;13.32;7.68;;;8.30;99.90;;;;;;4945959;29;20019;-69
2021/12/01 17:50:08;;;;;;;6.50;3.75;;;8.30;99.90;;;;;;5019717;23;20824;-75
2021/12/01 17:52:34;;;;;;;11.50;4.10;;;8.30;99.90;;;;;;4947130;28;20074;-68
2021/12/01 17:55:01;;;;;;;7.55;3.55;;;8.30;99.90;;;;;;4946011;28;20103;-73
2021/12/01 17:57:29;;;;;;;6.35;3.60;;;8.30;99.90;;;;;;4945456;28;20030;-69
2021/12/01 17:59:59;;;;;;;6.63;4.15;;;8.30;99.90;;;;;;4964844;28;20038;-68
2021/12/01 18:02:25;;;;;;;6.20;3.38;;;8.30;99.90;;;;;;4947546;28;20062;-69
2021/12/01 18:04:51;;;;;;;7.55;3.53;;;8.30;99.90;;;;;;4950642;28;20023;-70
2021/12/01 18:07:17;;;;;;;6.70;3.92;;;8.40;99.90;;;;;;4962807;28;20220;-70
2021/12/01 18:09:43;;;;;;;7.07;4.20;;;8.40;99.90;;;;;;4949415;28;20042;-78
2021/12/01 18:12:09;;;;;;;7.35;3.55;;;8.40;99.90;;;;;;4958056;28;20050;-73
2021/12/01 18:14:35;;;;;;;5.32;2.85;;;8.40;99.90;;;;;;4956631;28;20027;-73
2021/12/01 18:17:02;;;;;;;7.60;4.47;;;8.30;99.90;;;;;;4950269;28;20026;-71
2021/12/01 18:19:27;;;;;;;7.40;3.85;;;8.30;99.90;;;;;;4947202;28;20046;-69
2021/12/01 18:21:54;;;;;;;11.23;4.65;;;8.30;99.90;;;;;;4954281;28;20026;-73
2021/12/01 18:24:20;;;;;;;12.23;5.07;;;8.30;99.90;;;;;;4959090;28;20435;-76
2021/12/01 18:26:46;;;;;;;10.02;4.45;;;8.30;99.90;;;;;;4958471;28;20377;-78
2021/12/01 18:29:12;;;;;;;10.77;3.55;;;8.20;99.90;;;;;;4957732;28;20057;-73
2021/12/01 18:31:40;;;;;;;6.30;3.20;;;8.20;99.90;;;;;;4957764;28;20031;-76
2021/12/01 18:34:07;;;;;;;4.47;3.05;;;8.10;99.90;;;;;;4956842;28;20031;-70
2021/12/01 18:36:33;;;;;;;7.22;4.60;;;8.10;99.90;;;;;;4963702;28;20035;-71
2021/12/01 18:38:59;;;;;;;8.30;4.15;;;8.10;99.90;;;;;;4961678;28;20023;-79
2021/12/01 18:41:25;;;;;;;8.52;3.90;;;8.10;99.90;;;;;;4956455;28;20094;-71
2021/12/01 18:43:52;;;;;;;7.70;3.53;;;8.10;99.90;;;;;;4954332;28;20098;-70
2021/12/01 18:46:18;;;;;;;12.13;4.30;;;8.10;99.90;;;;;;4948774;28;20027;-72
2021/12/01 18:48:46;;;;;;;9.52;4.15;;;8.10;99.90;;;;;;4955059;28;20015;-80
2021/12/01 18:51:12;;;;;;;7.68;3.88;;;8.00;99.90;;;;;;4943434;28;20082;-71
2021/12/01 18:53:39;;;;;;;9.27;4.28;;;8.00;99.90;;;;;;4971173;28;20455;-72
2021/12/01 18:56:06;;;;;;;7.68;3.95;;;8.00;99.90;;;;;;4956823;28;20140;-80
2021/12/01 18:58:32;;;;;;;8.70;4.65;;;8.00;99.90;;;;;;4963262;28;20034;-69
2021/12/01 19:00:58;;;;;;;8.52;4.63;;;8.00;99.90;;;;;;4960831;28;20031;-71
2021/12/01 19:03:25;;;;;;;11.13;7.63;;;8.00;99.90;;;;;;4959765;28;20361;-74
2021/12/01 19:06:09;;;;;;;11.80;6.75;;;8.00;99.90;;;;;;4958772;28;20057;-76
2021/12/01 19:08:36;;;;;;;15.20;5.93;;;8.00;99.90;;;;;;4964356;28;20085;-77
2021/12/01 19:11:03;;;;;;;26.27;15.02;;;8.00;99.90;;;;;;4943249;28;20034;-72
2021/12/01 19:13:29;;;;;;;10.20;4.80;;;8.00;99.90;;;;;;4955085;28;20229;-74
2021/12/01 19:15:54;;;;;;;9.68;5.07;;;8.00;99.90;;;;;;4956206;28;20301;-70
2021/12/01 19:18:20;;;;;;;11.10;4.45;;;7.90;99.90;;;;;;4963647;28;20039;-72
2021/12/01 19:20:46;;;;;;;7.93;4.20;;;7.90;99.90;;;;;;4955357;28;20019;-74
2021/12/01 19:23:35;;;;;;;7.70;4.30;;;7.90;99.90;;;;;;4942870;28;20015;-74
2021/12/01 19:26:01;;;;;;;6.50;4.07;;;7.90;99.90;;;;;;4960102;28;20015;-72
2021/12/01 19:28:27;;;;;;;8.32;4.25;;;7.90;99.90;;;;;;4946257;28;20045;-71
2021/12/01 19:30:52;;;;;;;8.90;4.07;;;7.90;99.90;;;;;;4954486;28;20094;-71
2021/12/01 19:33:18;;;;;;;7.45;4.80;;;7.90;99.90;;;;;;4959300;28;20034;-72
2021/12/01 19:35:44;;;;;;;12.93;4.88;;;7.90;99.90;;;;;;4956008;28;20209;-69
2021/12/01 19:38:10;;;;;;;14.77;5.78;;;7.90;99.90;;;;;;4960617;28;20325;-74
2021/12/01 19:40:35;;;;;;;10.55;5.30;;;7.90;99.90;;;;;;4968658;28;20027;-70
2021/12/01 19:43:20;;;;;;;10.25;4.97;;;7.80;99.90;;;;;;4967157;28;20023;-72
2021/12/01 19:45:48;;;;;;;8.63;4.35;;;7.80;99.90;;;;;;4959757;28;20027;-75
2021/12/01 19:48:34;;;;;;;8.90;4.85;;;7.80;99.90;;;;;;4955877;28;20101;-72
2021/12/01 19:51:00;;;;;;;8.43;4.35;;;7.80;99.90;;;;;;4946502;28;20043;-70
2021/12/01 19:53:26;;;;;;;10.90;4.53;;;7.80;99.90;;;;;;4965444;28;20019;-77
2021/12/01 19:55:51;;;;;;;9.48;5.00;;;7.80;99.90;;;;;;4945986;28;20031;-71
2021/12/01 19:58:18;;;;;;;11.18;5.50;;;7.80;99.90;;;;;;4958835;28;20031;-72
2021/12/01 20:00:45;;;;;;;8.48;5.22;;;7.80;99.90;;;;;;4964323;28;20026;-73
2021/12/01 20:03:11;;;;;;;10.10;5.80;;;7.80;99.90;;;;;;4940735;28;20055;-72
2021/12/01 20:05:37;;;;;;;10.75;5.70;;;7.80;99.90;;;;;;4961610;28;20035;-71
2021/12/01 20:08:06;;;;;;;10.88;5.70;;;7.80;99.90;;;;;;4967855;28;20590;-70
2021/12/01 20:10:33;;;;;;;13.35;5.78;;;7.80;99.90;;;;;;4953506;28;20090;-75
2021/12/01 20:13:05;;;;;;;14.25;6.05;;;7.80;99.90;;;;;;4945475;28;20031;-74
2021/12/01 20:15:31;;;;;;;9.43;5.53;;;7.80;99.90;;;;;;4955019;28;20038;-70
2021/12/01 20:17:59;;;;;;;15.93;6.07;;;7.80;99.90;;;;;;4942589;28;20116;-70
2021/12/01 20:20:27;;;;;;;10.25;5.70;;;7.80;99.90;;;;;;4960429;28;20027;-73
2021/12/01 20:22:55;;;;;;;;;;;7.80;99.90;;;;;;4959505;28;20026;-73
2021/12/01 20:25:34;;;;;;;9.18;5.55;;;7.80;99.90;;;;;;4941606;28;20181;-70